Time;durP1;ratioP1;P1;durP2;ratioP2;P2;SDS_P1;SDS_P2;PMS_P1;PMS_P2;Temp;Humidity;BMP_temperature;BMP_pressure;BME280_temperature;BME280_humidity;BME280_pressure;Samples;Min_cycle;Max_cycle;Signal;HPM_P1;HPM_P2
2020/12/06 00:02:02;;;;;;;22.90;19.70;;;4.80;99.90;;;;;;4981880;28;20859;-65
2020/12/06 00:04:47;;;;;;;21.90;18.10;;;4.90;99.90;;;;;;4984470;28;20639;-66
2020/12/06 00:07:31;;;;;;;24.90;19.90;;;4.80;99.90;;;;;;4985848;28;21266;-65
2020/12/06 00:10:19;;;;;;;24.00;19.37;;;4.70;99.90;;;;;;4989909;28;20635;-66
2020/12/06 00:13:04;;;;;;;24.33;20.30;;;4.70;99.90;;;;;;4983890;28;20790;-65
2020/12/06 00:15:48;;;;;;;24.37;20.37;;;4.70;99.90;;;;;;4989227;28;20592;-65
2020/12/06 00:18:33;;;;;;;25.50;19.90;;;4.60;99.90;;;;;;4983826;28;20943;-64
2020/12/06 00:21:19;;;;;;;25.63;20.50;;;4.70;99.90;;;;;;4980731;28;20687;-66
2020/12/06 00:24:05;;;;;;;23.70;18.97;;;4.70;99.90;;;;;;4987481;28;20619;-65
2020/12/06 00:26:49;;;;;;;23.20;19.00;;;4.70;99.90;;;;;;4988706;28;21030;-65
2020/12/06 00:29:34;;;;;;;25.53;19.07;;;4.70;99.90;;;;;;4980159;28;20727;-65
2020/12/06 00:32:19;;;;;;;24.67;20.13;;;4.70;99.90;;;;;;4983644;28;20738;-64
2020/12/06 00:35:05;;;;;;;24.60;20.20;;;4.70;99.90;;;;;;4983883;28;20585;-66
2020/12/06 00:37:50;;;;;;;26.50;20.20;;;4.60;99.90;;;;;;4987487;28;20686;-65
2020/12/06 00:40:34;;;;;;;24.27;19.93;;;4.60;99.90;;;;;;4981355;28;20625;-65
2020/12/06 00:43:19;;;;;;;23.17;19.17;;;4.60;99.90;;;;;;4993030;28;20655;-65
2020/12/06 00:46:04;;;;;;;25.57;20.10;;;4.60;99.90;;;;;;4982154;28;20640;-67
2020/12/06 00:48:48;;;;;;;24.40;20.20;;;4.60;99.90;;;;;;4985596;28;20607;-64
2020/12/06 00:51:33;;;;;;;26.10;20.90;;;4.60;99.90;;;;;;4977657;28;20751;-65
2020/12/06 00:54:17;;;;;;;24.10;19.50;;;4.60;99.90;;;;;;4989603;28;20586;-65
2020/12/06 00:57:05;;;;;;;26.80;19.80;;;4.60;99.90;;;;;;5001135;28;20573;-66
2020/12/06 00:59:50;;;;;;;30.70;23.77;;;4.60;99.90;;;;;;4981217;28;20647;-66
2020/12/06 01:02:35;;;;;;;29.50;24.70;;;4.60;99.90;;;;;;4992146;28;20683;-65
2020/12/06 01:05:19;;;;;;;28.20;23.60;;;4.60;99.90;;;;;;4986164;28;20587;-65
2020/12/06 01:08:03;;;;;;;26.93;22.30;;;4.60;99.90;;;;;;4994058;28;20626;-65
2020/12/06 01:10:48;;;;;;;27.77;22.50;;;4.60;99.90;;;;;;4998995;28;20748;-65
2020/12/06 01:13:32;;;;;;;25.43;19.90;;;4.60;99.90;;;;;;4975419;28;20989;-65
2020/12/06 01:16:17;;;;;;;25.03;20.43;;;4.60;99.90;;;;;;4991811;28;23714;-65
2020/12/06 01:19:01;;;;;;;24.10;19.40;;;4.60;99.90;;;;;;5009008;28;20619;-65
2020/12/06 01:21:53;;;;;;;25.87;19.60;;;4.60;99.90;;;;;;4980711;28;20722;-68
2020/12/06 01:24:39;;;;;;;23.67;19.07;;;4.60;99.90;;;;;;4982704;28;21213;-65
2020/12/06 01:27:24;;;;;;;26.53;19.77;;;4.70;99.90;;;;;;4997525;28;20620;-65
2020/12/06 01:30:08;;;;;;;21.10;18.10;;;4.70;99.90;;;;;;4998913;28;21245;-66
2020/12/06 01:32:53;;;;;;;23.60;18.33;;;4.70;99.90;;;;;;4985437;28;20651;-65
2020/12/06 01:35:37;;;;;;;24.13;19.37;;;4.70;99.90;;;;;;4982559;28;20735;-65
2020/12/06 01:38:22;;;;;;;24.60;19.43;;;4.70;99.90;;;;;;4992393;28;20595;-65
2020/12/06 01:41:06;;;;;;;23.77;18.27;;;4.70;99.90;;;;;;4993226;28;20818;-65
2020/12/06 01:43:58;;;;;;;22.53;18.00;;;4.70;99.90;;;;;;4994126;28;20631;-65
2020/12/06 01:46:42;;;;;;;23.90;18.37;;;4.70;99.90;;;;;;4989609;28;20639;-65
2020/12/06 01:49:35;;;;;;;25.20;19.73;;;4.70;99.90;;;;;;4992653;28;20600;-65
2020/12/06 01:52:20;;;;;;;24.17;19.50;;;4.70;99.90;;;;;;4994909;28;20723;-65
2020/12/06 01:55:08;;;;;;;26.10;20.10;;;4.70;99.90;;;;;;4983556;28;20666;-66
2020/12/06 01:58:04;;;;;;;23.40;19.47;;;4.80;99.90;;;;;;4983515;28;20957;-64
2020/12/06 02:00:48;;;;;;;23.67;19.53;;;4.70;99.90;;;;;;4986666;28;20639;-65
2020/12/06 02:03:33;;;;;;;25.87;19.57;;;4.70;99.90;;;;;;4991310;28;20615;-65
2020/12/06 02:06:17;;;;;;;25.70;19.90;;;4.70;99.90;;;;;;4990564;28;20632;-66
2020/12/06 02:09:01;;;;;;;23.37;18.67;;;4.70;99.90;;;;;;4981656;28;20646;-65
2020/12/06 02:11:46;;;;;;;24.47;18.40;;;4.80;99.90;;;;;;4981588;28;20718;-68
2020/12/06 02:14:30;;;;;;;22.53;18.70;;;4.80;99.90;;;;;;4989220;28;20607;-66
2020/12/06 02:17:14;;;;;;;25.17;19.20;;;4.80;99.90;;;;;;4991709;28;21277;-65
2020/12/06 02:19:59;;;;;;;25.97;19.37;;;4.80;99.90;;;;;;4984962;28;20651;-66
2020/12/06 02:22:43;;;;;;;25.87;19.20;;;4.80;99.90;;;;;;4999332;23;20831;-70
2020/12/06 02:25:28;;;;;;;24.33;19.83;;;4.80;99.90;;;;;;4975770;28;20597;-69
2020/12/06 02:28:12;;;;;;;23.90;18.60;;;4.80;99.90;;;;;;4970596;28;20605;-68
2020/12/06 02:30:57;;;;;;;26.67;20.00;;;4.90;99.90;;;;;;4968836;28;20987;-68
2020/12/06 02:33:41;;;;;;;23.50;18.40;;;4.80;99.90;;;;;;4944877;28;20646;-69
2020/12/06 02:36:25;;;;;;;24.40;18.73;;;4.90;99.90;;;;;;4950829;28;21156;-70
2020/12/06 02:39:11;;;;;;;22.90;17.60;;;4.80;99.90;;;;;;4949695;29;20657;-70
2020/12/06 02:41:56;;;;;;;22.60;18.10;;;4.80;99.90;;;;;;4956752;28;20788;-69
2020/12/06 02:44:40;;;;;;;24.13;19.13;;;4.90;99.90;;;;;;4980053;28;20716;-69
2020/12/06 02:47:25;;;;;;;23.73;18.40;;;4.80;99.90;;;;;;4960351;28;20589;-69
2020/12/06 02:50:09;;;;;;;22.50;18.27;;;4.90;99.90;;;;;;4977999;28;20653;-69
2020/12/06 02:52:57;;;;;;;24.47;18.43;;;4.90;99.90;;;;;;4972805;28;20664;-69
2020/12/06 02:55:42;;;;;;;24.10;19.03;;;4.90;99.90;;;;;;4972219;28;20592;-69
2020/12/06 02:58:26;;;;;;;24.27;19.30;;;4.90;99.90;;;;;;4971989;28;20632;-69
2020/12/06 03:01:11;;;;;;;25.23;19.30;;;4.90;99.90;;;;;;4978761;28;20716;-69
2020/12/06 03:03:57;;;;;;;23.50;19.73;;;4.90;99.90;;;;;;4966186;28;20644;-68
2020/12/06 03:06:41;;;;;;;27.90;19.43;;;4.90;99.90;;;;;;4967875;28;20648;-69
2020/12/06 03:09:26;;;;;;;21.73;17.37;;;4.90;99.90;;;;;;4966378;28;20689;-69
2020/12/06 03:12:11;;;;;;;25.80;19.50;;;4.90;99.90;;;;;;4970743;28;20792;-70
2020/12/06 03:14:56;;;;;;;24.33;18.63;;;4.90;99.90;;;;;;4968368;28;20636;-69
2020/12/06 03:17:40;;;;;;;25.20;18.13;;;4.90;99.90;;;;;;4964665;28;20619;-69
2020/12/06 03:20:24;;;;;;;24.87;18.60;;;5.00;99.90;;;;;;4965718;28;20737;-69
2020/12/06 03:23:11;;;;;;;24.03;18.90;;;5.00;99.90;;;;;;4964449;28;20812;-69
2020/12/06 03:25:56;;;;;;;24.20;18.20;;;5.00;99.90;;;;;;4975522;28;20708;-70
2020/12/06 03:28:40;;;;;;;23.70;17.90;;;5.00;99.90;;;;;;4970488;28;20605;-69
2020/12/06 03:31:25;;;;;;;26.03;18.20;;;5.00;99.90;;;;;;4963331;28;20641;-69
2020/12/06 03:34:09;;;;;;;25.37;19.63;;;5.00;99.90;;;;;;4971280;28;21202;-69
2020/12/06 03:36:54;;;;;;;25.30;19.03;;;5.00;99.90;;;;;;4972820;28;21198;-70
2020/12/06 03:39:39;;;;;;;23.83;18.73;;;5.00;99.90;;;;;;4959040;28;20993;-69
2020/12/06 03:42:23;;;;;;;22.60;18.20;;;5.00;99.90;;;;;;4959198;28;20657;-69
2020/12/06 03:45:08;;;;;;;22.03;17.27;;;5.00;99.90;;;;;;4972538;28;20617;-69
2020/12/06 03:47:55;;;;;;;24.70;19.20;;;5.00;99.90;;;;;;4965385;28;20710;-69
2020/12/06 03:50:40;;;;;;;26.30;19.20;;;5.00;99.90;;;;;;4953695;28;20647;-70
2020/12/06 03:53:25;;;;;;;25.07;18.73;;;5.00;99.90;;;;;;4960848;28;21114;-70
2020/12/06 03:56:09;;;;;;;26.37;19.30;;;5.00;99.90;;;;;;4958339;28;20598;-69
2020/12/06 03:58:54;;;;;;;24.30;19.13;;;5.00;99.90;;;;;;4948105;28;20595;-69
2020/12/06 04:01:38;;;;;;;22.60;18.00;;;5.10;99.90;;;;;;4981198;28;20650;-69
2020/12/06 04:04:23;;;;;;;26.60;19.53;;;5.00;99.90;;;;;;4970658;28;20749;-69
2020/12/06 04:07:08;;;;;;;23.80;18.37;;;5.10;99.90;;;;;;4969166;28;20628;-70
2020/12/06 04:09:52;;;;;;;27.10;19.00;;;5.10;99.90;;;;;;4976053;28;20637;-69
2020/12/06 04:12:39;;;;;;;28.13;18.30;;;5.10;99.90;;;;;;4972455;28;21611;-70
2020/12/06 04:15:27;;;;;;;23.93;17.87;;;5.10;99.90;;;;;;4968398;28;20597;-69
2020/12/06 04:18:11;;;;;;;26.43;20.30;;;5.10;99.90;;;;;;4985362;28;20680;-69
2020/12/06 04:20:56;;;;;;;24.70;19.10;;;5.10;99.90;;;;;;4969967;28;20668;-68
2020/12/06 04:23:42;;;;;;;23.93;19.40;;;5.10;99.90;;;;;;4983459;28;20765;-69
2020/12/06 04:26:27;;;;;;;25.50;19.60;;;5.10;99.90;;;;;;4982603;28;20732;-69
2020/12/06 04:29:11;;;;;;;27.20;19.97;;;5.10;99.90;;;;;;4974675;28;20629;-70
2020/12/06 04:31:56;;;;;;;26.57;19.77;;;5.20;99.90;;;;;;4953788;28;20646;-68
2020/12/06 04:34:40;;;;;;;27.33;19.97;;;5.20;99.90;;;;;;4968901;28;20687;-68
2020/12/06 04:37:25;;;;;;;26.80;20.50;;;5.20;99.90;;;;;;4965885;28;20989;-69
2020/12/06 04:40:09;;;;;;;27.83;20.67;;;5.20;99.90;;;;;;4982720;28;21192;-69
2020/12/06 04:42:55;;;;;;;28.00;20.70;;;5.20;99.90;;;;;;4961356;28;20660;-69
2020/12/06 04:45:40;;;;;;;27.90;20.43;;;5.30;99.90;;;;;;4983599;28;20606;-69
2020/12/06 04:48:50;;;;;;;26.23;20.00;;;5.30;99.90;;;;;;4979783;28;20632;-69
2020/12/06 04:51:43;;;;;;;28.17;22.10;;;5.30;99.90;;;;;;4967206;28;21284;-70
2020/12/06 04:54:32;;;;;;;29.00;20.40;;;5.30;99.90;;;;;;4969620;28;20687;-69
2020/12/06 04:57:19;;;;;;;29.57;21.40;;;5.40;99.90;;;;;;4966153;28;20641;-69
2020/12/06 05:00:11;;;;;;;28.97;22.00;;;5.40;99.90;;;;;;4949670;28;20751;-70
2020/12/06 05:03:01;;;;;;;29.90;22.30;;;5.40;99.90;;;;;;4967570;28;20644;-69
2020/12/06 05:05:48;;;;;;;29.50;22.63;;;5.40;99.90;;;;;;4975067;28;21103;-70
2020/12/06 05:08:35;;;;;;;31.80;21.37;;;5.40;99.90;;;;;;4965962;28;20634;-68
2020/12/06 05:11:20;;;;;;;29.03;22.37;;;5.50;99.90;;;;;;4967378;28;20657;-69
2020/12/06 05:14:08;;;;;;;29.93;22.00;;;5.50;99.90;;;;;;4983186;28;20630;-69
2020/12/06 05:16:57;;;;;;;29.93;21.60;;;5.50;99.90;;;;;;4970007;28;20766;-70
2020/12/06 05:19:41;;;;;;;28.40;21.77;;;5.60;99.90;;;;;;4968383;28;20801;-69
2020/12/06 05:22:26;;;;;;;29.07;22.00;;;5.60;99.90;;;;;;4968448;28;20685;-69
2020/12/06 05:25:11;;;;;;;27.03;20.30;;;5.60;99.90;;;;;;4964687;28;20676;-68
2020/12/06 05:27:56;;;;;;;27.93;21.73;;;5.60;99.90;;;;;;4979634;28;20606;-69
2020/12/06 05:30:41;;;;;;;27.30;20.90;;;5.70;99.90;;;;;;4964416;28;20650;-69
2020/12/06 05:33:26;;;;;;;26.27;20.10;;;5.70;99.90;;;;;;4968261;28;21024;-69
2020/12/06 05:36:11;;;;;;;28.43;21.20;;;5.70;99.90;;;;;;4976612;28;21060;-69
2020/12/06 05:38:56;;;;;;;27.13;20.20;;;5.70;99.90;;;;;;4959060;28;20749;-69
2020/12/06 05:41:46;;;;;;;28.40;21.00;;;5.70;99.90;;;;;;4964011;28;20775;-70
2020/12/06 05:44:31;;;;;;;27.10;21.20;;;5.80;99.90;;;;;;4966515;28;20755;-70
2020/12/06 05:47:16;;;;;;;25.40;20.40;;;5.80;99.90;;;;;;4977883;28;20598;-68
2020/12/06 05:50:01;;;;;;;27.60;21.33;;;5.80;99.90;;;;;;4965525;28;20703;-69
2020/12/06 05:52:45;;;;;;;25.90;20.83;;;5.80;99.90;;;;;;4964527;28;20830;-69
2020/12/06 05:55:30;;;;;;;28.53;21.40;;;5.90;99.90;;;;;;4967112;28;20989;-69
2020/12/06 05:58:17;;;;;;;24.60;19.67;;;5.90;99.90;;;;;;4975956;28;21055;-69
2020/12/06 06:01:02;;;;;;;31.63;22.00;;;5.90;99.90;;;;;;4963594;28;20653;-70
2020/12/06 06:03:52;;;;;;;29.67;22.63;;;5.90;99.90;;;;;;4977930;28;21331;-70
2020/12/06 06:06:42;;;;;;;28.47;21.37;;;5.90;99.90;;;;;;4969377;28;20690;-70
2020/12/06 06:09:30;;;;;;;29.33;21.50;;;6.00;99.90;;;;;;4973260;28;20950;-70
2020/12/06 06:12:24;;;;;;;30.83;21.20;;;6.00;99.90;;;;;;4977676;28;20720;-70
2020/12/06 06:15:11;;;;;;;27.97;20.90;;;6.00;99.90;;;;;;4965104;28;20608;-70
2020/12/06 06:18:00;;;;;;;29.30;21.00;;;6.00;99.90;;;;;;4969203;28;20624;-70
2020/12/06 06:20:46;;;;;;;27.33;20.43;;;6.00;99.90;;;;;;4960792;28;20797;-69
2020/12/06 06:23:31;;;;;;;29.03;21.17;;;6.00;99.90;;;;;;4978709;28;20767;-70
2020/12/06 06:26:18;;;;;;;26.97;20.80;;;6.10;99.90;;;;;;4970572;28;20649;-70
2020/12/06 06:29:13;;;;;;;32.53;22.30;;;6.10;99.90;;;;;;4968116;28;20633;-70
2020/12/06 06:31:58;;;;;;;29.40;21.17;;;6.10;99.90;;;;;;4976247;28;20741;-70
2020/12/06 06:34:42;;;;;;;28.27;20.40;;;6.00;99.90;;;;;;4976498;28;20733;-70
2020/12/06 06:37:29;;;;;;;26.20;20.63;;;6.10;99.90;;;;;;4966158;28;20613;-69
2020/12/06 06:40:14;;;;;;;28.07;20.20;;;6.10;99.90;;;;;;4979521;28;20657;-70
2020/12/06 06:43:05;;;;;;;28.33;21.23;;;6.10;99.90;;;;;;4965219;28;20668;-70
2020/12/06 06:45:50;;;;;;;30.03;21.80;;;6.10;99.90;;;;;;4970214;28;20633;-71
2020/12/06 06:48:35;;;;;;;27.90;20.30;;;6.20;99.90;;;;;;4968232;28;20740;-70
2020/12/06 06:51:23;;;;;;;31.33;23.10;;;6.20;99.90;;;;;;4962980;28;20738;-69
2020/12/06 06:54:09;;;;;;;28.57;20.83;;;6.20;99.90;;;;;;4981266;28;21299;-69
2020/12/06 06:56:55;;;;;;;29.97;21.30;;;6.20;99.90;;;;;;4961586;28;21241;-69
2020/12/06 06:59:43;;;;;;;27.57;20.37;;;6.20;99.90;;;;;;4963858;28;20652;-69
2020/12/06 07:02:31;;;;;;;29.07;21.90;;;6.20;99.90;;;;;;4977222;28;20663;-70
2020/12/06 07:05:26;;;;;;;31.80;22.47;;;6.20;99.90;;;;;;4959003;28;20662;-69
2020/12/06 07:08:19;;;;;;;30.47;22.13;;;6.20;99.90;;;;;;4967198;28;20589;-68
2020/12/06 07:11:05;;;;;;;30.47;22.10;;;6.30;99.90;;;;;;4966892;28;20637;-68
2020/12/06 07:13:50;;;;;;;28.90;21.97;;;6.30;99.90;;;;;;4972954;28;20676;-69
2020/12/06 07:16:35;;;;;;;33.60;22.10;;;6.30;99.90;;;;;;4967976;28;20720;-70
2020/12/06 07:19:20;;;;;;;29.27;22.23;;;6.30;99.90;;;;;;4977748;28;20598;-69
2020/12/06 07:22:06;;;;;;;30.03;22.07;;;6.40;99.90;;;;;;4967078;28;20752;-70
2020/12/06 07:24:51;;;;;;;31.67;23.60;;;6.40;99.90;;;;;;4981009;28;20708;-69
2020/12/06 07:27:35;;;;;;;33.03;22.63;;;6.40;99.90;;;;;;4980816;28;20589;-69
2020/12/06 07:30:20;;;;;;;32.30;22.80;;;6.40;99.90;;;;;;4977002;28;21223;-70
2020/12/06 07:33:05;;;;;;;28.70;21.50;;;6.40;99.90;;;;;;4964385;28;20715;-69
2020/12/06 07:35:49;;;;;;;30.00;22.80;;;6.40;99.90;;;;;;4960917;28;20784;-71
2020/12/06 07:38:37;;;;;;;30.43;21.40;;;6.40;99.90;;;;;;4981061;28;21216;-71
2020/12/06 07:41:21;;;;;;;29.83;22.43;;;6.50;99.90;;;;;;4967097;28;20641;-72
2020/12/06 07:44:06;;;;;;;31.33;23.40;;;6.50;99.90;;;;;;4969924;28;20644;-70
2020/12/06 07:47:00;;;;;;;29.10;22.07;;;6.50;99.90;;;;;;4964405;28;21260;-71
2020/12/06 07:49:46;;;;;;;29.87;21.80;;;6.40;99.90;;;;;;4977052;28;20646;-73
2020/12/06 07:52:36;;;;;;;31.33;23.27;;;6.50;99.90;;;;;;4973189;28;20664;-70
2020/12/06 07:55:20;;;;;;;32.77;22.83;;;6.40;99.90;;;;;;4973754;28;20634;-73
2020/12/06 07:58:13;;;;;;;28.83;21.83;;;6.40;99.90;;;;;;4980742;28;20593;-72
2020/12/06 08:00:58;;;;;;;30.77;22.07;;;6.40;99.90;;;;;;4963558;28;20649;-72
2020/12/06 08:03:43;;;;;;;32.50;22.67;;;6.50;99.90;;;;;;4980347;28;20676;-71
2020/12/06 08:06:30;;;;;;;30.10;22.90;;;6.50;99.90;;;;;;4975011;28;20593;-71
2020/12/06 08:09:16;;;;;;;30.20;22.30;;;6.50;99.90;;;;;;4980225;28;20697;-71
2020/12/06 08:12:04;;;;;;;31.97;22.13;;;6.50;99.90;;;;;;4968896;28;21017;-70
2020/12/06 08:14:57;;;;;;;28.63;21.77;;;6.50;99.90;;;;;;4968392;28;20664;-70
2020/12/06 08:17:50;;;;;;;29.97;21.80;;;6.50;99.90;;;;;;4979994;28;20676;-70
2020/12/06 08:20:34;;;;;;;29.17;21.40;;;6.60;99.90;;;;;;4965097;28;20649;-72
2020/12/06 08:23:33;;;;;;;31.20;22.10;;;6.60;99.90;;;;;;4969369;23;20706;-63
2020/12/06 08:26:18;;;;;;;28.67;21.70;;;6.50;99.90;;;;;;4924872;28;20605;-63
2020/12/06 08:29:02;;;;;;;28.20;21.90;;;6.60;99.90;;;;;;4924621;28;20616;-65
2020/12/06 08:32:02;;;;;;;30.87;22.60;;;6.60;99.90;;;;;;4904513;28;21066;-65
2020/12/06 08:34:54;;;;;;;30.07;21.87;;;6.60;99.90;;;;;;4909673;28;20628;-63
2020/12/06 08:37:39;;;;;;;29.60;23.00;;;6.60;99.90;;;;;;4918282;28;20616;-63
2020/12/06 08:40:24;;;;;;;27.53;21.53;;;6.60;99.90;;;;;;4894141;28;20652;-62
2020/12/06 08:43:08;;;;;;;29.10;22.20;;;6.70;99.90;;;;;;4899114;28;20711;-61
2020/12/06 08:46:09;;;;;;;31.60;23.23;;;6.60;99.90;;;;;;4890420;28;20737;-62
2020/12/06 08:48:56;;;;;;;28.77;22.00;;;6.70;99.90;;;;;;4916458;28;20592;-67
2020/12/06 08:51:51;;;;;;;30.00;22.40;;;6.70;99.90;;;;;;4909757;28;20816;-65
2020/12/06 08:54:36;;;;;;;30.67;22.57;;;6.80;99.90;;;;;;4902245;28;20640;-65
2020/12/06 08:57:27;;;;;;;33.27;23.73;;;6.80;99.90;;;;;;4902912;28;20605;-66
2020/12/06 09:00:12;;;;;;;29.73;22.37;;;6.80;99.90;;;;;;4906110;28;20645;-65
2020/12/06 09:02:59;;;;;;;30.93;22.77;;;6.80;99.90;;;;;;4925728;28;21254;-65
2020/12/06 09:05:45;;;;;;;31.10;23.70;;;6.80;99.90;;;;;;4930837;28;20660;-65
2020/12/06 09:08:30;;;;;;;33.87;23.23;;;6.90;99.90;;;;;;4961383;28;20625;-65
2020/12/06 09:11:16;;;;;;;30.80;22.47;;;6.90;99.90;;;;;;4909086;28;20637;-64
2020/12/06 09:14:01;;;;;;;29.37;23.00;;;6.90;99.90;;;;;;4890558;28;20668;-65
2020/12/06 09:16:46;;;;;;;31.10;23.10;;;6.90;99.90;;;;;;4924914;28;20605;-63
2020/12/06 09:19:31;;;;;;;28.47;22.20;;;7.00;99.90;;;;;;4902527;28;20589;-64
2020/12/06 09:22:15;;;;;;;30.93;23.07;;;7.00;99.90;;;;;;4889260;28;20672;-64
2020/12/06 09:25:00;;;;;;;28.80;22.33;;;7.00;99.90;;;;;;4904414;28;20625;-65
2020/12/06 09:27:44;;;;;;;31.50;24.00;;;7.00;99.90;;;;;;4901833;28;20645;-65
2020/12/06 09:30:29;;;;;;;30.17;22.87;;;7.00;99.90;;;;;;4892585;28;20700;-64
2020/12/06 09:33:13;;;;;;;31.10;22.60;;;7.00;99.90;;;;;;4890937;28;21187;-65
2020/12/06 09:35:58;;;;;;;31.97;22.07;;;7.10;99.90;;;;;;4918971;28;20625;-64
2020/12/06 09:38:43;;;;;;;28.77;21.90;;;7.10;99.90;;;;;;4897749;28;21207;-66
2020/12/06 09:41:27;;;;;;;31.50;22.27;;;7.10;99.90;;;;;;4893611;28;20648;-64
2020/12/06 09:44:12;;;;;;;30.27;22.47;;;7.20;99.90;;;;;;4904503;28;20700;-63
2020/12/06 09:46:57;;;;;;;30.77;22.73;;;7.20;99.90;;;;;;4900780;28;20785;-62
2020/12/06 09:49:41;;;;;;;33.33;23.47;;;7.30;99.90;;;;;;4899862;28;20653;-64
2020/12/06 09:52:26;;;;;;;33.23;23.07;;;7.30;99.90;;;;;;4914368;28;22878;-64
2020/12/06 09:55:10;;;;;;;33.10;23.00;;;7.30;99.90;;;;;;4899657;28;20707;-64
2020/12/06 09:57:55;;;;;;;28.60;21.00;;;7.30;99.90;;;;;;4894957;28;20740;-64
2020/12/06 10:00:41;;;;;;;28.83;22.03;;;7.40;99.90;;;;;;4902339;28;20653;-66
2020/12/06 10:03:26;;;;;;;30.53;21.30;;;7.40;99.90;;;;;;4911961;28;20679;-67
2020/12/06 10:06:10;;;;;;;33.50;22.20;;;7.50;99.90;;;;;;4912338;28;20581;-67
2020/12/06 10:08:55;;;;;;;28.90;21.77;;;7.50;99.90;;;;;;4892940;28;20598;-68
2020/12/06 10:11:39;;;;;;;31.00;22.27;;;7.50;99.90;;;;;;4878961;28;21244;-71
2020/12/06 10:14:24;;;;;;;31.60;22.60;;;7.50;99.90;;;;;;4873795;28;20588;-68
2020/12/06 10:17:08;;;;;;;29.93;21.93;;;7.60;99.90;;;;;;4891817;28;20594;-70
2020/12/06 10:19:53;;;;;;;32.10;22.60;;;7.70;99.90;;;;;;4935958;28;20640;-64
2020/12/06 10:22:37;;;;;;;30.90;21.77;;;7.60;99.90;;;;;;4927190;28;21242;-63
2020/12/06 10:25:22;;;;;;;30.80;21.33;;;7.70;99.90;;;;;;4896514;28;21147;-64
2020/12/06 10:28:06;;;;;;;32.53;23.57;;;7.70;99.90;;;;;;4915787;28;21158;-64
2020/12/06 10:30:51;;;;;;;30.43;23.87;;;7.80;99.90;;;;;;4895262;28;20945;-64
2020/12/06 10:33:36;;;;;;;28.03;22.10;;;7.80;99.90;;;;;;4916463;28;20656;-65
2020/12/06 10:36:20;;;;;;;34.83;24.27;;;7.80;99.90;;;;;;4895854;28;20609;-65
2020/12/06 10:39:05;;;;;;;30.80;22.30;;;7.90;99.90;;;;;;4912205;28;20617;-64
2020/12/06 10:41:57;;;;;;;35.10;24.40;;;7.90;99.90;;;;;;4947186;28;20625;-66
2020/12/06 10:44:42;;;;;;;32.37;24.47;;;8.00;99.90;;;;;;4937837;28;21286;-64
2020/12/06 10:47:26;;;;;;;35.23;24.77;;;7.90;99.90;;;;;;4944327;28;20691;-65
2020/12/06 10:50:11;;;;;;;33.33;23.67;;;7.90;99.90;;;;;;4944649;28;20648;-65
2020/12/06 10:52:56;;;;;;;29.93;23.67;;;8.00;99.90;;;;;;4928334;28;20799;-65
2020/12/06 10:55:40;;;;;;;31.50;24.50;;;8.00;99.90;;;;;;4929874;28;20580;-66
2020/12/06 10:58:25;;;;;;;32.97;24.83;;;8.10;99.90;;;;;;4939248;28;21003;-65
2020/12/06 11:01:09;;;;;;;35.10;24.90;;;8.10;99.90;;;;;;4903653;28;20703;-65
2020/12/06 11:03:54;;;;;;;33.30;24.60;;;8.10;99.90;;;;;;4946827;28;20679;-65
2020/12/06 11:06:38;;;;;;;30.13;23.40;;;8.10;99.90;;;;;;4911493;28;20661;-64
2020/12/06 11:09:23;;;;;;;32.93;24.43;;;8.10;99.90;;;;;;4976526;28;21287;-64
2020/12/06 11:12:08;;;;;;;34.90;25.10;;;8.00;99.90;;;;;;4893398;28;20590;-65
2020/12/06 11:14:53;;;;;;;29.97;23.70;;;8.10;99.90;;;;;;4893940;28;21235;-64
2020/12/06 11:17:37;;;;;;;30.43;23.73;;;8.00;99.90;;;;;;4893268;28;20606;-64
2020/12/06 11:20:21;;;;;;;34.47;24.97;;;8.10;99.90;;;;;;4883711;28;21114;-64
2020/12/06 11:23:06;;;;;;;33.20;24.77;;;8.10;99.90;;;;;;4925841;28;21293;-65
2020/12/06 11:25:50;;;;;;;30.40;24.37;;;8.10;99.90;;;;;;4904189;28;21086;-65
2020/12/06 11:28:35;;;;;;;30.20;24.07;;;8.10;99.90;;;;;;4920422;28;20604;-64
2020/12/06 11:31:20;;;;;;;32.70;25.00;;;8.20;99.90;;;;;;4946677;28;21231;-64
2020/12/06 11:34:05;;;;;;;34.00;25.43;;;8.10;99.90;;;;;;4886654;28;21240;-64
2020/12/06 11:36:49;;;;;;;33.93;26.10;;;8.10;99.90;;;;;;4907638;28;20606;-64
2020/12/06 11:39:34;;;;;;;34.20;26.10;;;8.10;99.90;;;;;;4890022;28;20609;-64
2020/12/06 11:42:18;;;;;;;34.10;24.23;;;8.20;99.90;;;;;;4875082;28;21564;-69
2020/12/06 11:45:03;;;;;;;31.90;24.80;;;8.10;99.90;;;;;;4866905;28;20638;-67
2020/12/06 11:47:47;;;;;;;32.17;25.00;;;8.20;99.90;;;;;;4866742;28;20607;-68
2020/12/06 11:50:33;;;;;;;33.70;25.60;;;8.20;99.90;;;;;;4863937;28;20657;-66
2020/12/06 11:53:17;;;;;;;32.10;24.87;;;8.20;99.90;;;;;;4878765;28;21158;-66
2020/12/06 11:56:03;;;;;;;31.77;24.43;;;8.20;99.90;;;;;;4878850;28;20693;-68
2020/12/06 11:58:47;;;;;;;30.00;23.93;;;8.20;99.90;;;;;;4893764;28;20587;-66
2020/12/06 12:01:34;;;;;;;31.13;24.07;;;8.20;99.90;;;;;;4892433;28;21062;-70
2020/12/06 12:04:18;;;;;;;32.97;25.00;;;8.20;99.90;;;;;;4877632;28;20603;-66
2020/12/06 12:07:03;;;;;;;33.30;24.70;;;8.20;99.90;;;;;;4900481;28;20673;-67
2020/12/06 12:09:48;;;;;;;34.63;25.10;;;8.20;99.90;;;;;;4891561;28;20792;-67
2020/12/06 12:12:32;;;;;;;32.67;26.03;;;8.20;99.90;;;;;;4873804;28;20723;-67
2020/12/06 12:15:17;;;;;;;33.20;24.97;;;8.20;99.90;;;;;;4881557;28;20734;-64
2020/12/06 12:18:01;;;;;;;33.23;25.13;;;8.20;99.90;;;;;;4895634;28;20581;-64
2020/12/06 12:20:46;;;;;;;33.70;25.70;;;8.20;99.90;;;;;;4888764;28;20641;-63
2020/12/06 12:23:31;;;;;;;36.13;26.93;;;8.20;99.90;;;;;;4887176;28;20668;-64
2020/12/06 12:26:15;;;;;;;31.07;24.93;;;8.20;99.90;;;;;;4914823;28;20649;-65
2020/12/06 12:29:00;;;;;;;35.10;25.60;;;8.20;99.90;;;;;;4883770;28;21101;-64
2020/12/06 12:31:45;;;;;;;31.63;24.63;;;8.20;99.90;;;;;;4904429;28;20686;-63
2020/12/06 12:34:29;;;;;;;32.97;26.13;;;8.20;99.90;;;;;;4908326;28;20620;-64
2020/12/06 12:37:15;;;;;;;29.63;23.97;;;8.20;99.90;;;;;;4927352;28;20610;-64
2020/12/06 12:40:00;;;;;;;34.57;26.40;;;8.20;99.90;;;;;;4949517;28;20648;-62
2020/12/06 12:42:44;;;;;;;34.00;25.57;;;8.30;99.90;;;;;;4873149;28;20670;-64
2020/12/06 12:45:29;;;;;;;33.30;25.50;;;8.20;99.90;;;;;;4899648;28;20650;-64
2020/12/06 12:48:13;;;;;;;32.37;25.00;;;8.20;99.90;;;;;;4933345;28;20606;-64
2020/12/06 12:50:58;;;;;;;33.73;24.63;;;8.20;99.90;;;;;;4922845;28;20640;-64
2020/12/06 12:53:43;;;;;;;32.37;24.97;;;8.20;99.90;;;;;;4910007;28;20783;-64
2020/12/06 12:56:29;;;;;;;34.53;26.13;;;8.20;99.90;;;;;;4972301;28;21206;-64
2020/12/06 12:59:14;;;;;;;31.73;25.30;;;8.20;99.90;;;;;;4930970;28;20632;-64
2020/12/06 13:01:58;;;;;;;33.03;25.47;;;8.20;99.90;;;;;;4899845;28;20940;-64
2020/12/06 13:04:43;;;;;;;37.60;27.00;;;8.10;99.90;;;;;;4955077;28;21267;-66
2020/12/06 13:07:28;;;;;;;29.30;24.60;;;8.20;99.90;;;;;;4926132;28;20674;-64
2020/12/06 13:10:13;;;;;;;32.93;26.10;;;8.20;99.90;;;;;;4920975;28;20637;-64
2020/12/06 13:12:58;;;;;;;31.87;24.23;;;8.10;99.90;;;;;;4975060;28;21255;-64
2020/12/06 13:15:42;;;;;;;35.43;26.60;;;8.10;99.90;;;;;;4882512;28;20693;-64
2020/12/06 13:18:27;;;;;;;35.30;26.47;;;8.10;99.90;;;;;;4932030;28;20625;-63
2020/12/06 13:21:11;;;;;;;32.93;25.07;;;8.10;99.90;;;;;;4952128;28;20788;-64
2020/12/06 13:23:56;;;;;;;32.67;24.60;;;8.10;99.90;;;;;;4896254;28;20742;-64
2020/12/06 13:26:40;;;;;;;33.57;24.60;;;8.10;99.90;;;;;;4986292;28;20707;-64
2020/12/06 13:29:25;;;;;;;33.60;26.07;;;8.10;99.90;;;;;;4928191;28;20590;-64
2020/12/06 13:32:10;;;;;;;36.83;27.33;;;8.10;99.90;;;;;;4918601;28;20594;-64
2020/12/06 13:34:54;;;;;;;35.37;27.00;;;8.10;99.90;;;;;;4961909;28;21046;-64
2020/12/06 13:37:39;;;;;;;33.83;25.47;;;8.10;99.90;;;;;;4906022;28;20658;-64
2020/12/06 13:40:23;;;;;;;33.80;25.80;;;8.00;99.90;;;;;;4911506;28;21067;-64
2020/12/06 13:43:07;;;;;;;34.33;25.33;;;8.00;99.90;;;;;;4969012;28;20643;-63
2020/12/06 13:45:52;;;;;;;36.23;26.80;;;8.00;99.90;;;;;;4945773;28;20621;-64
2020/12/06 13:48:37;;;;;;;33.73;25.97;;;8.00;99.90;;;;;;4930650;28;20616;-64
2020/12/06 13:51:21;;;;;;;30.80;24.90;;;8.00;99.90;;;;;;4915289;28;20699;-64
2020/12/06 13:54:06;;;;;;;31.83;25.07;;;8.10;99.90;;;;;;4943413;28;20740;-64
2020/12/06 13:56:50;;;;;;;33.37;25.30;;;8.00;99.90;;;;;;4949342;28;20573;-64
2020/12/06 13:59:35;;;;;;;40.27;29.60;;;8.00;99.90;;;;;;4960048;28;20646;-64
2020/12/06 14:02:22;;;;;;;36.70;27.87;;;8.00;99.90;;;;;;4964660;28;20621;-64
2020/12/06 14:05:07;;;;;;;39.00;28.10;;;8.00;99.90;;;;;;4910937;28;20629;-64
2020/12/06 14:07:51;;;;;;;36.13;27.40;;;8.00;99.90;;;;;;4944150;28;20569;-64
2020/12/06 14:10:36;;;;;;;32.50;26.43;;;8.00;99.90;;;;;;4916561;28;21218;-64